sensor_id;sensor_type;location;lat;lon;timestamp;temperature;humidity
52575;DHT22;38468;48.114;-1.684;2023-12-29T00:00:49;11.60;80.90
52575;DHT22;38468;48.114;-1.684;2023-12-29T00:02:49;11.50;80.90
52575;DHT22;38468;48.114;-1.684;2023-12-29T00:04:50;11.50;81.40
52575;DHT22;38468;48.114;-1.684;2023-12-29T00:07:12;11.50;81.40
52575;DHT22;38468;48.114;-1.684;2023-12-29T00:09:14;11.50;81.40
52575;DHT22;38468;48.114;-1.684;2023-12-29T00:11:19;11.50;81.60
52575;DHT22;38468;48.114;-1.684;2023-12-29T00:13:20;11.50;81.70
52575;DHT22;38468;48.114;-1.684;2023-12-29T00:15:24;11.50;81.70
52575;DHT22;38468;48.114;-1.684;2023-12-29T00:17:25;11.50;81.80
52575;DHT22;38468;48.114;-1.684;2023-12-29T00:19:25;11.50;81.70
52575;DHT22;38468;48.114;-1.684;2023-12-29T00:21:26;11.50;81.60
52575;DHT22;38468;48.114;-1.684;2023-12-29T00:23:27;11.40;81.90
52575;DHT22;38468;48.114;-1.684;2023-12-29T00:25:28;11.40;82.10
52575;DHT22;38468;48.114;-1.684;2023-12-29T00:27:28;11.50;81.80
52575;DHT22;38468;48.114;-1.684;2023-12-29T00:29:29;11.50;81.80
52575;DHT22;38468;48.114;-1.684;2023-12-29T00:31:33;11.50;82.00
52575;DHT22;38468;48.114;-1.684;2023-12-29T00:33:33;11.50;82.00
52575;DHT22;38468;48.114;-1.684;2023-12-29T00:35:37;11.50;81.80
52575;DHT22;38468;48.114;-1.684;2023-12-29T00:37:43;11.50;81.80
52575;DHT22;38468;48.114;-1.684;2023-12-29T00:39:44;11.60;81.60
52575;DHT22;38468;48.114;-1.684;2023-12-29T00:41:44;11.60;81.50
52575;DHT22;38468;48.114;-1.684;2023-12-29T00:43:45;11.60;81.50
52575;DHT22;38468;48.114;-1.684;2023-12-29T00:45:46;11.60;81.70
52575;DHT22;38468;48.114;-1.684;2023-12-29T00:47:46;11.60;81.70
52575;DHT22;38468;48.114;-1.684;2023-12-29T00:49:48;11.60;81.90
52575;DHT22;38468;48.114;-1.684;2023-12-29T00:51:49;11.70;82.00
52575;DHT22;38468;48.114;-1.684;2023-12-29T00:53:50;11.70;82.20
52575;DHT22;38468;48.114;-1.684;2023-12-29T00:55:50;11.70;81.90
52575;DHT22;38468;48.114;-1.684;2023-12-29T00:57:51;11.70;81.90
52575;DHT22;38468;48.114;-1.684;2023-12-29T00:59:51;11.70;81.90
52575;DHT22;38468;48.114;-1.684;2023-12-29T01:01:52;11.80;81.80
52575;DHT22;38468;48.114;-1.684;2023-12-29T01:03:53;11.80;81.80
52575;DHT22;38468;48.114;-1.684;2023-12-29T01:05:55;11.70;81.80
52575;DHT22;38468;48.114;-1.684;2023-12-29T01:07:57;11.70;81.80
52575;DHT22;38468;48.114;-1.684;2023-12-29T01:09:57;11.70;81.80
52575;DHT22;38468;48.114;-1.684;2023-12-29T01:11:58;11.80;81.80
52575;DHT22;38468;48.114;-1.684;2023-12-29T01:13:59;11.80;82.10
52575;DHT22;38468;48.114;-1.684;2023-12-29T01:15:59;11.70;82.30
52575;DHT22;38468;48.114;-1.684;2023-12-29T01:18:00;11.70;82.20
52575;DHT22;38468;48.114;-1.684;2023-12-29T01:20:01;11.70;82.40
52575;DHT22;38468;48.114;-1.684;2023-12-29T01:22:03;11.70;82.40
52575;DHT22;38468;48.114;-1.684;2023-12-29T01:24:04;11.70;82.60
52575;DHT22;38468;48.114;-1.684;2023-12-29T01:26:06;11.70;82.40
52575;DHT22;38468;48.114;-1.684;2023-12-29T01:28:07;11.70;82.50
52575;DHT22;38468;48.114;-1.684;2023-12-29T01:30:08;11.80;82.40
52575;DHT22;38468;48.114;-1.684;2023-12-29T01:32:09;11.80;82.50
52575;DHT22;38468;48.114;-1.684;2023-12-29T01:34:11;11.80;82.40
52575;DHT22;38468;48.114;-1.684;2023-12-29T01:36:17;11.80;82.40
52575;DHT22;38468;48.114;-1.684;2023-12-29T01:38:19;11.80;82.30
52575;DHT22;38468;48.114;-1.684;2023-12-29T01:40:20;11.80;82.20
52575;DHT22;38468;48.114;-1.684;2023-12-29T01:42:20;11.80;82.20
52575;DHT22;38468;48.114;-1.684;2023-12-29T01:44:22;11.90;82.10
52575;DHT22;38468;48.114;-1.684;2023-12-29T01:46:26;11.90;82.00
52575;DHT22;38468;48.114;-1.684;2023-12-29T01:48:28;11.90;82.00
52575;DHT22;38468;48.114;-1.684;2023-12-29T01:50:29;11.90;82.10
52575;DHT22;38468;48.114;-1.684;2023-12-29T01:52:40;11.90;82.10
52575;DHT22;38468;48.114;-1.684;2023-12-29T01:54:43;11.90;82.00
52575;DHT22;38468;48.114;-1.684;2023-12-29T01:56:44;11.90;82.00
52575;DHT22;38468;48.114;-1.684;2023-12-29T01:58:46;11.90;82.00
52575;DHT22;38468;48.114;-1.684;2023-12-29T02:00:48;11.90;81.90
52575;DHT22;38468;48.114;-1.684;2023-12-29T02:02:49;12.00;81.90
52575;DHT22;38468;48.114;-1.684;2023-12-29T02:04:50;11.90;82.00
52575;DHT22;38468;48.114;-1.684;2023-12-29T02:06:56;12.00;81.90
52575;DHT22;38468;48.114;-1.684;2023-12-29T02:08:58;11.90;81.90
52575;DHT22;38468;48.114;-1.684;2023-12-29T02:10:59;11.90;81.80
52575;DHT22;38468;48.114;-1.684;2023-12-29T02:13:00;11.90;81.80
52575;DHT22;38468;48.114;-1.684;2023-12-29T02:15:01;11.90;82.00
52575;DHT22;38468;48.114;-1.684;2023-12-29T02:19:53;11.90;82.00
52575;DHT22;38468;48.114;-1.684;2023-12-29T02:21:29;11.90;82.00
52575;DHT22;38468;48.114;-1.684;2023-12-29T02:23:31;11.80;82.10
52575;DHT22;38468;48.114;-1.684;2023-12-29T02:25:32;11.80;82.10
52575;DHT22;38468;48.114;-1.684;2023-12-29T02:27:52;11.80;82.10
52575;DHT22;38468;48.114;-1.684;2023-12-29T02:32:04;11.80;82.20
52575;DHT22;38468;48.114;-1.684;2023-12-29T02:34:07;11.80;82.20
52575;DHT22;38468;48.114;-1.684;2023-12-29T02:36:09;11.70;82.30
52575;DHT22;38468;48.114;-1.684;2023-12-29T02:38:11;11.70;82.40
52575;DHT22;38468;48.114;-1.684;2023-12-29T02:40:14;11.70;82.50
52575;DHT22;38468;48.114;-1.684;2023-12-29T02:42:15;11.70;82.40
52575;DHT22;38468;48.114;-1.684;2023-12-29T02:44:16;11.80;82.30
52575;DHT22;38468;48.114;-1.684;2023-12-29T02:46:17;11.70;82.30
52575;DHT22;38468;48.114;-1.684;2023-12-29T02:48:17;11.70;82.30
52575;DHT22;38468;48.114;-1.684;2023-12-29T02:50:18;11.70;82.30
52575;DHT22;38468;48.114;-1.684;2023-12-29T02:52:28;11.60;82.50
52575;DHT22;38468;48.114;-1.684;2023-12-29T02:54:29;11.70;82.70
52575;DHT22;38468;48.114;-1.684;2023-12-29T02:56:29;11.70;82.60
52575;DHT22;38468;48.114;-1.684;2023-12-29T02:58:30;11.70;82.50
52575;DHT22;38468;48.114;-1.684;2023-12-29T03:00:30;11.70;82.60
52575;DHT22;38468;48.114;-1.684;2023-12-29T03:02:31;11.70;82.50
52575;DHT22;38468;48.114;-1.684;2023-12-29T03:04:32;11.70;82.40
52575;DHT22;38468;48.114;-1.684;2023-12-29T03:06:32;11.60;82.60
52575;DHT22;38468;48.114;-1.684;2023-12-29T03:08:38;11.60;82.50
52575;DHT22;38468;48.114;-1.684;2023-12-29T03:10:39;11.70;82.50
52575;DHT22;38468;48.114;-1.684;2023-12-29T03:12:39;11.60;82.40
52575;DHT22;38468;48.114;-1.684;2023-12-29T03:14:40;11.60;82.50
52575;DHT22;38468;48.114;-1.684;2023-12-29T03:16:41;11.60;82.60
52575;DHT22;38468;48.114;-1.684;2023-12-29T03:18:41;11.60;82.50
52575;DHT22;38468;48.114;-1.684;2023-12-29T03:20:42;11.70;82.50
52575;DHT22;38468;48.114;-1.684;2023-12-29T03:25:39;11.70;82.50
52575;DHT22;38468;48.114;-1.684;2023-12-29T03:27:40;11.70;82.50
52575;DHT22;38468;48.114;-1.684;2023-12-29T03:29:40;11.70;82.50
52575;DHT22;38468;48.114;-1.684;2023-12-29T03:31:41;11.60;82.60
52575;DHT22;38468;48.114;-1.684;2023-12-29T03:33:41;11.70;82.50
52575;DHT22;38468;48.114;-1.684;2023-12-29T03:35:42;11.60;82.60
52575;DHT22;38468;48.114;-1.684;2023-12-29T03:37:43;11.60;82.60
52575;DHT22;38468;48.114;-1.684;2023-12-29T03:39:43;11.60;82.70
52575;DHT22;38468;48.114;-1.684;2023-12-29T03:41:44;11.60;82.60
52575;DHT22;38468;48.114;-1.684;2023-12-29T03:43:44;11.60;82.60
52575;DHT22;38468;48.114;-1.684;2023-12-29T03:45:45;11.60;82.80
52575;DHT22;38468;48.114;-1.684;2023-12-29T03:47:46;11.60;82.80
52575;DHT22;38468;48.114;-1.684;2023-12-29T03:49:46;11.60;82.70
52575;DHT22;38468;48.114;-1.684;2023-12-29T03:51:47;11.60;82.70
52575;DHT22;38468;48.114;-1.684;2023-12-29T03:53:47;11.60;82.70
52575;DHT22;38468;48.114;-1.684;2023-12-29T03:55:48;11.60;82.60
52575;DHT22;38468;48.114;-1.684;2023-12-29T03:57:49;11.60;82.60
52575;DHT22;38468;48.114;-1.684;2023-12-29T03:59:49;11.50;82.70
52575;DHT22;38468;48.114;-1.684;2023-12-29T04:01:50;11.50;82.80
52575;DHT22;38468;48.114;-1.684;2023-12-29T04:03:50;11.50;83.00
52575;DHT22;38468;48.114;-1.684;2023-12-29T04:05:51;11.50;83.00
52575;DHT22;38468;48.114;-1.684;2023-12-29T04:07:52;11.50;82.90
52575;DHT22;38468;48.114;-1.684;2023-12-29T04:09:52;11.50;82.90
52575;DHT22;38468;48.114;-1.684;2023-12-29T04:11:53;11.50;83.00
52575;DHT22;38468;48.114;-1.684;2023-12-29T04:13:53;11.50;83.00
52575;DHT22;38468;48.114;-1.684;2023-12-29T04:15:54;11.60;83.00
52575;DHT22;38468;48.114;-1.684;2023-12-29T04:17:55;11.60;83.00
52575;DHT22;38468;48.114;-1.684;2023-12-29T04:19:55;11.60;83.00
52575;DHT22;38468;48.114;-1.684;2023-12-29T04:21:56;11.60;83.00
52575;DHT22;38468;48.114;-1.684;2023-12-29T04:24:02;11.60;83.10
52575;DHT22;38468;48.114;-1.684;2023-12-29T04:26:03;11.60;83.10
52575;DHT22;38468;48.114;-1.684;2023-12-29T04:28:04;11.50;83.20
52575;DHT22;38468;48.114;-1.684;2023-12-29T04:30:05;11.50;83.10
52575;DHT22;38468;48.114;-1.684;2023-12-29T04:32:06;11.60;83.20
52575;DHT22;38468;48.114;-1.684;2023-12-29T04:34:06;11.50;83.10
52575;DHT22;38468;48.114;-1.684;2023-12-29T04:36:07;11.50;83.10
52575;DHT22;38468;48.114;-1.684;2023-12-29T04:38:08;11.50;83.10
52575;DHT22;38468;48.114;-1.684;2023-12-29T04:40:09;11.50;83.10
52575;DHT22;38468;48.114;-1.684;2023-12-29T04:42:09;11.50;83.30
52575;DHT22;38468;48.114;-1.684;2023-12-29T04:44:10;11.50;83.30
52575;DHT22;38468;48.114;-1.684;2023-12-29T04:46:10;11.50;83.20
52575;DHT22;38468;48.114;-1.684;2023-12-29T04:48:11;11.50;83.20
52575;DHT22;38468;48.114;-1.684;2023-12-29T04:50:12;11.60;83.20
52575;DHT22;38468;48.114;-1.684;2023-12-29T04:52:13;11.50;83.20
52575;DHT22;38468;48.114;-1.684;2023-12-29T04:54:14;11.60;83.20
52575;DHT22;38468;48.114;-1.684;2023-12-29T04:56:14;11.60;83.20
52575;DHT22;38468;48.114;-1.684;2023-12-29T04:58:15;11.60;83.30
52575;DHT22;38468;48.114;-1.684;2023-12-29T05:00:15;11.70;83.30
52575;DHT22;38468;48.114;-1.684;2023-12-29T05:02:16;11.70;83.30
52575;DHT22;38468;48.114;-1.684;2023-12-29T05:04:17;11.70;83.40
52575;DHT22;38468;48.114;-1.684;2023-12-29T05:06:17;11.70;83.40
52575;DHT22;38468;48.114;-1.684;2023-12-29T05:08:23;11.70;83.40
52575;DHT22;38468;48.114;-1.684;2023-12-29T05:10:24;11.70;83.40
52575;DHT22;38468;48.114;-1.684;2023-12-29T05:12:24;11.70;83.40
52575;DHT22;38468;48.114;-1.684;2023-12-29T05:14:25;11.70;83.40
52575;DHT22;38468;48.114;-1.684;2023-12-29T05:16:26;11.70;83.40
52575;DHT22;38468;48.114;-1.684;2023-12-29T05:18:26;11.80;83.50
52575;DHT22;38468;48.114;-1.684;2023-12-29T05:20:30;11.80;83.50
52575;DHT22;38468;48.114;-1.684;2023-12-29T05:22:52;11.80;83.50
52575;DHT22;38468;48.114;-1.684;2023-12-29T05:24:52;11.80;83.50
52575;DHT22;38468;48.114;-1.684;2023-12-29T05:26:53;11.90;83.50
52575;DHT22;38468;48.114;-1.684;2023-12-29T05:28:54;11.90;83.50
52575;DHT22;38468;48.114;-1.684;2023-12-29T05:30:54;11.90;83.50
52575;DHT22;38468;48.114;-1.684;2023-12-29T05:32:56;11.90;83.50
52575;DHT22;38468;48.114;-1.684;2023-12-29T05:34:56;12.00;83.50
52575;DHT22;38468;48.114;-1.684;2023-12-29T05:36:57;12.00;83.40
52575;DHT22;38468;48.114;-1.684;2023-12-29T05:39:00;12.00;83.40
52575;DHT22;38468;48.114;-1.684;2023-12-29T05:41:02;12.00;83.40
52575;DHT22;38468;48.114;-1.684;2023-12-29T05:43:04;12.00;83.30
52575;DHT22;38468;48.114;-1.684;2023-12-29T05:45:05;12.00;83.40
52575;DHT22;38468;48.114;-1.684;2023-12-29T05:47:06;12.00;83.40
52575;DHT22;38468;48.114;-1.684;2023-12-29T05:49:07;12.00;83.40
52575;DHT22;38468;48.114;-1.684;2023-12-29T05:51:12;12.00;83.30
52575;DHT22;38468;48.114;-1.684;2023-12-29T05:53:19;12.00;83.40
52575;DHT22;38468;48.114;-1.684;2023-12-29T05:55:19;12.00;83.50
52575;DHT22;38468;48.114;-1.684;2023-12-29T05:57:20;12.00;83.50
52575;DHT22;38468;48.114;-1.684;2023-12-29T05:59:21;12.00;83.50
52575;DHT22;38468;48.114;-1.684;2023-12-29T06:01:21;12.00;83.60
52575;DHT22;38468;48.114;-1.684;2023-12-29T06:03:22;12.00;83.60
52575;DHT22;38468;48.114;-1.684;2023-12-29T06:05:22;12.00;83.50
52575;DHT22;38468;48.114;-1.684;2023-12-29T06:07:23;11.90;83.50
52575;DHT22;38468;48.114;-1.684;2023-12-29T06:09:24;12.00;83.60
52575;DHT22;38468;48.114;-1.684;2023-12-29T06:11:24;12.00;83.60
52575;DHT22;38468;48.114;-1.684;2023-12-29T06:13:25;12.00;83.50
52575;DHT22;38468;48.114;-1.684;2023-12-29T06:15:26;12.00;83.40
52575;DHT22;38468;48.114;-1.684;2023-12-29T06:17:26;12.00;83.40
52575;DHT22;38468;48.114;-1.684;2023-12-29T06:19:27;12.00;83.40
52575;DHT22;38468;48.114;-1.684;2023-12-29T06:21:28;12.00;83.30
52575;DHT22;38468;48.114;-1.684;2023-12-29T06:23:38;11.90;83.40
52575;DHT22;38468;48.114;-1.684;2023-12-29T06:25:39;11.90;83.50
52575;DHT22;38468;48.114;-1.684;2023-12-29T06:27:41;11.90;83.50
52575;DHT22;38468;48.114;-1.684;2023-12-29T06:29:42;11.90;83.40
52575;DHT22;38468;48.114;-1.684;2023-12-29T06:31:43;11.90;83.50
52575;DHT22;38468;48.114;-1.684;2023-12-29T06:33:43;11.90;83.50
52575;DHT22;38468;48.114;-1.684;2023-12-29T06:35:45;11.90;83.50
52575;DHT22;38468;48.114;-1.684;2023-12-29T06:37:45;11.90;83.50
52575;DHT22;38468;48.114;-1.684;2023-12-29T06:39:46;11.90;83.60
52575;DHT22;38468;48.114;-1.684;2023-12-29T06:41:46;11.90;83.60
52575;DHT22;38468;48.114;-1.684;2023-12-29T06:43:47;11.90;83.60
52575;DHT22;38468;48.114;-1.684;2023-12-29T06:45:48;11.90;83.80
52575;DHT22;38468;48.114;-1.684;2023-12-29T06:47:48;11.90;83.80
52575;DHT22;38468;48.114;-1.684;2023-12-29T06:49:49;11.80;83.80
52575;DHT22;38468;48.114;-1.684;2023-12-29T06:51:51;11.80;83.90
52575;DHT22;38468;48.114;-1.684;2023-12-29T06:53:52;11.80;83.90
52575;DHT22;38468;48.114;-1.684;2023-12-29T06:55:52;11.80;83.80
52575;DHT22;38468;48.114;-1.684;2023-12-29T06:57:53;11.80;83.70
52575;DHT22;38468;48.114;-1.684;2023-12-29T06:59:54;11.80;83.80
52575;DHT22;38468;48.114;-1.684;2023-12-29T07:01:54;11.90;83.80
52575;DHT22;38468;48.114;-1.684;2023-12-29T07:03:55;11.90;83.80
52575;DHT22;38468;48.114;-1.684;2023-12-29T07:05:56;11.90;83.80
52575;DHT22;38468;48.114;-1.684;2023-12-29T07:07:58;11.90;83.90
52575;DHT22;38468;48.114;-1.684;2023-12-29T07:09:58;11.90;83.70
52575;DHT22;38468;48.114;-1.684;2023-12-29T07:11:59;11.90;83.70
52575;DHT22;38468;48.114;-1.684;2023-12-29T07:14:00;11.90;83.80
52575;DHT22;38468;48.114;-1.684;2023-12-29T07:16:00;11.90;83.80
52575;DHT22;38468;48.114;-1.684;2023-12-29T07:18:01;11.90;83.70
52575;DHT22;38468;48.114;-1.684;2023-12-29T07:20:02;11.80;83.70
52575;DHT22;38468;48.114;-1.684;2023-12-29T07:22:05;11.70;83.90
52575;DHT22;38468;48.114;-1.684;2023-12-29T07:24:06;11.70;84.00
52575;DHT22;38468;48.114;-1.684;2023-12-29T07:26:07;11.80;83.90
52575;DHT22;38468;48.114;-1.684;2023-12-29T07:28:07;11.80;84.00
52575;DHT22;38468;48.114;-1.684;2023-12-29T07:30:09;11.80;83.90
52575;DHT22;38468;48.114;-1.684;2023-12-29T07:32:09;11.90;83.90
52575;DHT22;38468;48.114;-1.684;2023-12-29T07:34:10;11.80;83.90
52575;DHT22;38468;48.114;-1.684;2023-12-29T07:36:11;11.90;83.90
52575;DHT22;38468;48.114;-1.684;2023-12-29T07:38:13;11.80;83.90
52575;DHT22;38468;48.114;-1.684;2023-12-29T07:40:14;11.90;83.90
52575;DHT22;38468;48.114;-1.684;2023-12-29T07:42:15;11.90;83.90
52575;DHT22;38468;48.114;-1.684;2023-12-29T07:44:17;11.90;83.90
52575;DHT22;38468;48.114;-1.684;2023-12-29T07:46:26;11.90;83.90
52575;DHT22;38468;48.114;-1.684;2023-12-29T07:48:27;11.90;83.90
52575;DHT22;38468;48.114;-1.684;2023-12-29T07:50:28;11.90;83.90
52575;DHT22;38468;48.114;-1.684;2023-12-29T07:52:30;11.90;83.90
52575;DHT22;38468;48.114;-1.684;2023-12-29T07:54:49;11.90;83.90
52575;DHT22;38468;48.114;-1.684;2023-12-29T07:56:49;11.90;83.90
52575;DHT22;38468;48.114;-1.684;2023-12-29T07:58:51;11.90;83.90
52575;DHT22;38468;48.114;-1.684;2023-12-29T08:00:52;11.90;83.90
52575;DHT22;38468;48.114;-1.684;2023-12-29T08:02:52;11.80;84.00
52575;DHT22;38468;48.114;-1.684;2023-12-29T08:04:53;11.90;84.00
52575;DHT22;38468;48.114;-1.684;2023-12-29T08:06:55;11.90;84.00
52575;DHT22;38468;48.114;-1.684;2023-12-29T08:09:25;11.90;83.90
52575;DHT22;38468;48.114;-1.684;2023-12-29T08:11:25;11.80;84.00
52575;DHT22;38468;48.114;-1.684;2023-12-29T08:13:26;11.90;84.10
52575;DHT22;38468;48.114;-1.684;2023-12-29T08:15:26;11.90;84.10
52575;DHT22;38468;48.114;-1.684;2023-12-29T08:17:27;11.80;84.00
52575;DHT22;38468;48.114;-1.684;2023-12-29T08:19:28;11.80;84.00
52575;DHT22;38468;48.114;-1.684;2023-12-29T08:21:29;11.90;84.00
52575;DHT22;38468;48.114;-1.684;2023-12-29T08:23:29;11.90;84.10
52575;DHT22;38468;48.114;-1.684;2023-12-29T08:25:30;11.90;84.10
52575;DHT22;38468;48.114;-1.684;2023-12-29T08:27:31;11.90;84.10
52575;DHT22;38468;48.114;-1.684;2023-12-29T08:29:31;11.90;84.20
52575;DHT22;38468;48.114;-1.684;2023-12-29T08:31:32;11.90;84.10
52575;DHT22;38468;48.114;-1.684;2023-12-29T08:33:32;12.00;84.20
52575;DHT22;38468;48.114;-1.684;2023-12-29T08:35:33;12.00;84.20
52575;DHT22;38468;48.114;-1.684;2023-12-29T08:37:33;12.00;84.20
52575;DHT22;38468;48.114;-1.684;2023-12-29T08:39:50;12.00;84.20
52575;DHT22;38468;48.114;-1.684;2023-12-29T08:41:51;12.00;84.20
52575;DHT22;38468;48.114;-1.684;2023-12-29T08:43:51;12.10;84.20
52575;DHT22;38468;48.114;-1.684;2023-12-29T08:45:52;12.10;84.20
52575;DHT22;38468;48.114;-1.684;2023-12-29T08:47:53;12.10;84.20
52575;DHT22;38468;48.114;-1.684;2023-12-29T08:49:54;12.20;84.10
52575;DHT22;38468;48.114;-1.684;2023-12-29T08:51:55;12.20;84.00
52575;DHT22;38468;48.114;-1.684;2023-12-29T08:53:55;12.20;84.00
52575;DHT22;38468;48.114;-1.684;2023-12-29T08:55:56;12.20;84.00
52575;DHT22;38468;48.114;-1.684;2023-12-29T08:57:57;12.20;83.90
52575;DHT22;38468;48.114;-1.684;2023-12-29T08:59:58;12.20;84.00
52575;DHT22;38468;48.114;-1.684;2023-12-29T09:01:58;12.20;83.80
52575;DHT22;38468;48.114;-1.684;2023-12-29T09:04:00;12.20;83.90
52575;DHT22;38468;48.114;-1.684;2023-12-29T09:06:01;12.20;83.90
52575;DHT22;38468;48.114;-1.684;2023-12-29T09:08:03;12.20;83.80
52575;DHT22;38468;48.114;-1.684;2023-12-29T09:10:05;12.20;83.80
52575;DHT22;38468;48.114;-1.684;2023-12-29T09:12:08;12.20;83.80
52575;DHT22;38468;48.114;-1.684;2023-12-29T09:14:09;12.20;83.90
52575;DHT22;38468;48.114;-1.684;2023-12-29T09:16:09;12.30;83.90
52575;DHT22;38468;48.114;-1.684;2023-12-29T09:18:10;12.40;84.00
52575;DHT22;38468;48.114;-1.684;2023-12-29T09:20:11;12.50;83.90
52575;DHT22;38468;48.114;-1.684;2023-12-29T09:22:11;12.50;83.80
52575;DHT22;38468;48.114;-1.684;2023-12-29T09:24:12;12.60;83.70
52575;DHT22;38468;48.114;-1.684;2023-12-29T09:26:13;12.80;83.80
52575;DHT22;38468;48.114;-1.684;2023-12-29T09:28:13;12.80;83.70
52575;DHT22;38468;48.114;-1.684;2023-12-29T09:30:14;12.90;83.30
52575;DHT22;38468;48.114;-1.684;2023-12-29T09:32:15;12.90;83.20
52575;DHT22;38468;48.114;-1.684;2023-12-29T09:34:15;12.90;83.00
52575;DHT22;38468;48.114;-1.684;2023-12-29T09:36:16;13.00;83.10
52575;DHT22;38468;48.114;-1.684;2023-12-29T09:38:17;13.00;82.80
52575;DHT22;38468;48.114;-1.684;2023-12-29T09:40:18;13.00;82.90
52575;DHT22;38468;48.114;-1.684;2023-12-29T09:42:22;12.90;82.40
52575;DHT22;38468;48.114;-1.684;2023-12-29T09:44:25;12.80;82.10
52575;DHT22;38468;48.114;-1.684;2023-12-29T09:46:28;12.80;82.30
52575;DHT22;38468;48.114;-1.684;2023-12-29T09:48:33;12.80;82.50
52575;DHT22;38468;48.114;-1.684;2023-12-29T09:50:34;12.90;82.70
52575;DHT22;38468;48.114;-1.684;2023-12-29T09:52:39;12.90;82.70
52575;DHT22;38468;48.114;-1.684;2023-12-29T09:54:41;12.90;82.80
52575;DHT22;38468;48.114;-1.684;2023-12-29T09:56:43;12.80;82.40
52575;DHT22;38468;48.114;-1.684;2023-12-29T09:58:47;12.90;82.60
52575;DHT22;38468;48.114;-1.684;2023-12-29T10:00:50;12.90;82.50
52575;DHT22;38468;48.114;-1.684;2023-12-29T10:02:51;12.90;82.70
52575;DHT22;38468;48.114;-1.684;2023-12-29T10:04:55;12.90;82.40
52575;DHT22;38468;48.114;-1.684;2023-12-29T10:06:57;12.90;82.50
52575;DHT22;38468;48.114;-1.684;2023-12-29T10:09:20;12.80;82.30
52575;DHT22;38468;48.114;-1.684;2023-12-29T10:11:22;12.80;82.30
52575;DHT22;38468;48.114;-1.684;2023-12-29T10:13:23;12.70;82.40
52575;DHT22;38468;48.114;-1.684;2023-12-29T10:15:25;12.80;82.50
52575;DHT22;38468;48.114;-1.684;2023-12-29T10:19:41;12.80;82.60
52575;DHT22;38468;48.114;-1.684;2023-12-29T10:21:52;12.90;82.60
52575;DHT22;38468;48.114;-1.684;2023-12-29T10:25:55;12.90;82.60
52575;DHT22;38468;48.114;-1.684;2023-12-29T10:27:56;12.90;82.70
52575;DHT22;38468;48.114;-1.684;2023-12-29T10:29:57;12.90;82.50
52575;DHT22;38468;48.114;-1.684;2023-12-29T10:31:57;12.90;82.60
52575;DHT22;38468;48.114;-1.684;2023-12-29T10:34:20;12.90;82.70
52575;DHT22;38468;48.114;-1.684;2023-12-29T10:36:28;12.90;82.60
52575;DHT22;38468;48.114;-1.684;2023-12-29T10:38:41;12.90;82.60
52575;DHT22;38468;48.114;-1.684;2023-12-29T10:40:43;13.00;82.50
52575;DHT22;38468;48.114;-1.684;2023-12-29T10:42:54;12.90;82.50
52575;DHT22;38468;48.114;-1.684;2023-12-29T10:45:08;12.90;82.50
52575;DHT22;38468;48.114;-1.684;2023-12-29T10:47:11;13.00;82.40
52575;DHT22;38468;48.114;-1.684;2023-12-29T10:49:13;13.00;82.40
52575;DHT22;38468;48.114;-1.684;2023-12-29T10:51:14;13.00;82.40
52575;DHT22;38468;48.114;-1.684;2023-12-29T10:53:15;13.00;82.60
52575;DHT22;38468;48.114;-1.684;2023-12-29T10:55:17;13.00;82.50
52575;DHT22;38468;48.114;-1.684;2023-12-29T10:57:18;13.00;82.30
52575;DHT22;38468;48.114;-1.684;2023-12-29T10:59:19;13.00;82.40
52575;DHT22;38468;48.114;-1.684;2023-12-29T11:01:20;13.10;82.40
52575;DHT22;38468;48.114;-1.684;2023-12-29T11:03:22;13.10;82.40
52575;DHT22;38468;48.114;-1.684;2023-12-29T11:05:27;13.20;82.20
52575;DHT22;38468;48.114;-1.684;2023-12-29T11:07:35;13.30;82.40
52575;DHT22;38468;48.114;-1.684;2023-12-29T11:09:37;13.20;82.20
52575;DHT22;38468;48.114;-1.684;2023-12-29T11:11:38;13.30;82.00
52575;DHT22;38468;48.114;-1.684;2023-12-29T11:13:39;13.20;81.80
52575;DHT22;38468;48.114;-1.684;2023-12-29T11:15:44;13.30;82.10
52575;DHT22;38468;48.114;-1.684;2023-12-29T11:17:48;13.30;82.00
52575;DHT22;38468;48.114;-1.684;2023-12-29T11:19:50;13.30;81.90
52575;DHT22;38468;48.114;-1.684;2023-12-29T11:21:57;13.40;81.70
52575;DHT22;38468;48.114;-1.684;2023-12-29T11:23:57;13.30;81.70
52575;DHT22;38468;48.114;-1.684;2023-12-29T11:25:59;13.40;81.80
52575;DHT22;38468;48.114;-1.684;2023-12-29T11:28:00;13.40;82.00
52575;DHT22;38468;48.114;-1.684;2023-12-29T11:30:03;13.40;81.80
52575;DHT22;38468;48.114;-1.684;2023-12-29T11:32:06;13.40;81.80
52575;DHT22;38468;48.114;-1.684;2023-12-29T11:36:22;13.50;82.00
52575;DHT22;38468;48.114;-1.684;2023-12-29T11:40:46;13.50;82.00
52575;DHT22;38468;48.114;-1.684;2023-12-29T11:42:51;13.50;82.00
52575;DHT22;38468;48.114;-1.684;2023-12-29T11:44:53;13.50;81.90
52575;DHT22;38468;48.114;-1.684;2023-12-29T11:46:53;13.50;82.20
52575;DHT22;38468;48.114;-1.684;2023-12-29T11:48:57;13.50;82.00
52575;DHT22;38468;48.114;-1.684;2023-12-29T11:50:58;13.50;82.10
52575;DHT22;38468;48.114;-1.684;2023-12-29T11:52:59;13.50;82.20
52575;DHT22;38468;48.114;-1.684;2023-12-29T11:55:10;13.50;82.10
52575;DHT22;38468;48.114;-1.684;2023-12-29T11:57:10;13.60;82.10
52575;DHT22;38468;48.114;-1.684;2023-12-29T11:59:24;13.70;82.00
52575;DHT22;38468;48.114;-1.684;2023-12-29T12:01:35;13.60;81.80
52575;DHT22;38468;48.114;-1.684;2023-12-29T12:03:36;13.70;81.80
52575;DHT22;38468;48.114;-1.684;2023-12-29T12:05:49;13.70;81.70
52575;DHT22;38468;48.114;-1.684;2023-12-29T12:07:57;13.70;81.70
52575;DHT22;38468;48.114;-1.684;2023-12-29T12:12:40;13.70;81.70
52575;DHT22;38468;48.114;-1.684;2023-12-29T12:14:53;13.70;81.80
52575;DHT22;38468;48.114;-1.684;2023-12-29T12:16:54;13.60;81.70
52575;DHT22;38468;48.114;-1.684;2023-12-29T12:18:55;13.60;81.80
52575;DHT22;38468;48.114;-1.684;2023-12-29T12:20:56;13.70;81.90
52575;DHT22;38468;48.114;-1.684;2023-12-29T12:22:58;13.70;81.90
52575;DHT22;38468;48.114;-1.684;2023-12-29T12:25:00;13.70;82.00
52575;DHT22;38468;48.114;-1.684;2023-12-29T12:27:00;13.70;82.00
52575;DHT22;38468;48.114;-1.684;2023-12-29T12:29:03;13.70;82.00
52575;DHT22;38468;48.114;-1.684;2023-12-29T12:31:05;13.70;82.10
52575;DHT22;38468;48.114;-1.684;2023-12-29T12:33:07;13.70;82.10
52575;DHT22;38468;48.114;-1.684;2023-12-29T12:35:15;13.70;82.10
52575;DHT22;38468;48.114;-1.684;2023-12-29T12:37:21;13.70;82.10
52575;DHT22;38468;48.114;-1.684;2023-12-29T12:39:22;13.60;82.10
52575;DHT22;38468;48.114;-1.684;2023-12-29T12:41:24;13.70;82.30
52575;DHT22;38468;48.114;-1.684;2023-12-29T12:43:26;13.80;82.50
52575;DHT22;38468;48.114;-1.684;2023-12-29T12:45:28;14.00;82.70
52575;DHT22;38468;48.114;-1.684;2023-12-29T12:47:52;14.00;82.50
52575;DHT22;38468;48.114;-1.684;2023-12-29T12:49:54;14.20;82.70
52575;DHT22;38468;48.114;-1.684;2023-12-29T12:51:55;14.40;82.60
52575;DHT22;38468;48.114;-1.684;2023-12-29T12:53:56;14.50;82.30
52575;DHT22;38468;48.114;-1.684;2023-12-29T12:55:57;14.50;81.70
52575;DHT22;38468;48.114;-1.684;2023-12-29T12:57:58;14.50;81.30